Impacts METAR Board
IDs:

KCNW - Waco/Texas State Tec, TX, US

Updated at: 0500 UTC 19 Aug 2019
Potential Impact None Slight Moderate High
Time 18/17Z 18/18Z 18/19Z 18/20Z 18/21Z 18/22Z 18/23Z 19/00Z 19/01Z 19/02Z 19/03Z 19/04Z 19/05Z
Temp93 95 97 99 99 100 100 99 95 88 88 90
Dewpt72 68 66 66 64 64 63 64 63 66 66 72
Altim29.91 29.91 29.89 29.87 29.85 29.85 29.84 29.84 29.83 29.83 29.86 29.89
VIS10 10 10 10 10 10 10 10 10 10 10 10
CIG-- -- -- -- -- -- -- -- -- -- -- --
CoverSKCSKCSKCSKCSKCSKCSKCSKCSKCSKCSKCSKC
FltCatVFRVFRVFRVFRVFRVFRVFRVFRVFRVFRVFRVFR
WX------------------------
WDir190190180160150160130150150130130160
WSpd12 11 10 13 11 7 8 8 7 4 5 10
WGst20 18 21 -- 15 -- -- -- -- -- -- 15
Raw hourly METARs
KCNW 181655Z 19012G20KT 10SM SKC 34/22 A2991
KCNW 181755Z 19011G18KT 10SM SKC 35/20 A2991
KCNW 181855Z 18010G21KT 10SM SKC 36/19 A2989
KCNW 181955Z 16013KT 10SM SKC 37/19 A2987
KCNW 182055Z 15011G15KT 10SM SKC 37/18 A2985
KCNW 182155Z 16007KT 10SM SKC 38/18 A2985
KCNW 182255Z 13008KT 10SM SKC 38/17 A2984
KCNW 182355Z 15008KT 10SM SKC 37/18 A2984
KCNW 190055Z 15007KT 10SM SKC 35/17 A2983
KCNW 190155Z 13004KT 10SM SKC 31/19 A2983
KCNW 190255Z 13005KT 10SM SKC 31/19 A2986
KCNW 190355Z 16010G15KT 10SM SKC 32/22 A2989




Page loaded:  05:34 UTC  |   10:34 PM Pacific  |   11:34 PM Mountain  |   12:34 AM Central  |   01:34 AM Eastern

 

ADVISORIES

FORECASTS

FORECASTS

OBSERVATIONS

USER TOOLS

ABOUT US